Time;durP1;ratioP1;P1;durP2;ratioP2;P2;SDS_P1;SDS_P2;PMS_P1;PMS_P2;Temp;Humidity;BMP_temperature;BMP_pressure;BME280_temperature;BME280_humidity;BME280_pressure;Samples;Min_cycle;Max_cycle;Signal;HPM_P1;HPM_P2
2023/05/25 04:22:06;;;;;;;11.73;3.90;;;10.60;99.90;;;;;;3952927;28;20383;-60
2023/05/25 04:24:33;;;;;;;9.57;4.10;;;10.60;99.90;;;;;;5082545;28;20317;-59
2023/05/25 04:27:01;;;;;;;10.43;5.10;;;10.60;99.90;;;;;;5088681;28;20200;-60
2023/05/25 04:29:28;;;;;;;5.90;3.60;;;10.60;99.90;;;;;;5085848;28;20214;-59
2023/05/25 04:31:54;;;;;;;8.47;4.20;;;10.60;99.90;;;;;;5069426;28;20244;-61
2023/05/25 04:34:22;;;;;;;9.27;4.30;;;10.60;99.90;;;;;;5078462;28;20271;-59
2023/05/25 04:36:49;;;;;;;9.90;4.43;;;10.70;99.90;;;;;;5085882;28;20198;-60
2023/05/25 04:39:16;;;;;;;9.40;4.37;;;10.80;99.90;;;;;;5091278;28;20202;-61
2023/05/25 04:41:43;;;;;;;8.97;4.20;;;10.80;99.90;;;;;;5091589;28;20202;-59
2023/05/25 04:44:10;;;;;;;10.23;4.03;;;10.90;99.90;;;;;;5083187;28;20229;-59
2023/05/25 04:46:37;;;;;;;9.17;4.33;;;10.80;99.90;;;;;;5089131;28;20277;-59
2023/05/25 04:49:04;;;;;;;8.17;4.57;;;10.80;99.90;;;;;;5081938;28;20586;-59
2023/05/25 04:51:31;;;;;;;7.53;4.10;;;10.80;99.90;;;;;;5086516;28;20210;-59
2023/05/25 04:53:59;;;;;;;12.33;4.63;;;10.80;99.90;;;;;;5084413;28;20215;-59
2023/05/25 04:56:26;;;;;;;13.20;4.50;;;10.90;99.90;;;;;;5088185;28;20202;-59
2023/05/25 04:58:52;;;;;;;9.70;4.20;;;11.00;99.90;;;;;;5085378;28;20282;-59
2023/05/25 05:01:19;;;;;;;10.47;4.50;;;11.00;99.90;;;;;;5085909;28;20205;-60
2023/05/25 05:03:46;;;;;;;10.67;4.40;;;11.10;99.90;;;;;;5085984;28;20197;-60
2023/05/25 05:06:14;;;;;;;8.23;4.13;;;11.20;99.90;;;;;;5072098;28;20210;-60
2023/05/25 05:08:41;;;;;;;10.43;4.50;;;11.30;99.90;;;;;;5065721;28;20414;-60
2023/05/25 05:11:09;;;;;;;9.13;3.87;;;11.30;99.90;;;;;;5086069;28;20623;-59
2023/05/25 05:13:36;;;;;;;8.47;4.33;;;11.40;99.90;;;;;;5085629;28;20228;-60
2023/05/25 05:16:03;;;;;;;11.27;4.20;;;11.40;99.90;;;;;;5086809;28;20205;-60
2023/05/25 05:18:30;;;;;;;13.20;4.40;;;11.40;99.90;;;;;;5083201;28;20289;-59
2023/05/25 05:20:57;;;;;;;7.07;3.63;;;11.40;99.90;;;;;;5086016;28;20705;-59
2023/05/25 05:23:23;;;;;;;12.13;4.23;;;11.50;99.90;;;;;;5083246;28;20276;-63
2023/05/25 05:25:50;;;;;;;10.60;3.97;;;11.70;99.90;;;;;;5087246;28;20194;-59
2023/05/25 05:28:17;;;;;;;14.10;3.97;;;11.70;99.90;;;;;;5085972;28;20202;-59
2023/05/25 05:30:46;;;;;;;9.93;4.23;;;11.80;99.90;;;;;;5086356;28;20209;-62
2023/05/25 05:33:13;;;;;;;8.53;4.07;;;11.90;99.90;;;;;;5056649;28;20218;-60
2023/05/25 05:35:40;;;;;;;8.10;4.33;;;12.00;99.90;;;;;;5064000;28;20311;-59
2023/05/25 05:38:08;;;;;;;7.93;3.77;;;11.90;1.00;;;;;;5079993;28;20325;-59
2023/05/25 05:40:35;;;;;;;12.00;4.97;;;11.80;99.90;;;;;;5085893;28;20654;-62
2023/05/25 05:43:02;;;;;;;11.20;4.00;;;11.80;99.90;;;;;;5066422;28;20744;-59
2023/05/25 05:45:29;;;;;;;10.87;4.73;;;11.90;99.90;;;;;;5085965;28;20213;-60
2023/05/25 05:47:56;;;;;;;8.37;4.20;;;12.00;99.90;;;;;;5065680;28;20214;-59
2023/05/25 05:50:22;;;;;;;10.90;4.30;;;12.00;99.90;;;;;;5086959;28;20279;-60
2023/05/25 05:52:50;;;;;;;8.67;4.50;;;12.00;99.90;;;;;;5078307;28;20359;-60
2023/05/25 05:55:17;;;;;;;11.90;4.63;;;12.30;99.90;;;;;;5082530;28;20199;-60
2023/05/25 05:57:44;;;;;;;12.47;4.60;;;12.30;99.90;;;;;;5086641;28;20203;-60
2023/05/25 06:00:11;;;;;;;8.43;4.13;;;12.40;99.90;;;;;;5081675;28;20271;-61
2023/05/25 06:02:38;;;;;;;10.43;4.30;;;12.40;99.90;;;;;;5073094;28;20209;-60
2023/05/25 06:05:08;;;;;;;10.33;4.30;;;12.40;99.90;;;;;;5083869;28;20731;-60
2023/05/25 06:07:36;;;;;;;10.87;4.90;;;12.30;99.90;;;;;;5085887;28;20210;-61
2023/05/25 06:10:04;;;;;;;7.73;4.30;;;12.40;99.90;;;;;;5086149;28;20260;-62
2023/05/25 06:12:31;;;;;;;5.90;4.10;;;12.50;99.90;;;;;;5087647;28;20195;-60
2023/05/25 06:14:58;;;;;;;11.13;4.77;;;12.40;99.90;;;;;;5083787;28;20277;-60
2023/05/25 06:17:26;;;;;;;9.97;4.37;;;12.20;99.90;;;;;;5086289;28;20275;-61
2023/05/25 06:19:53;;;;;;;6.90;3.97;;;12.50;99.90;;;;;;5084719;28;20199;-61
2023/05/25 06:22:20;;;;;;;9.87;5.50;;;12.60;99.90;;;;;;5081570;28;20203;-60
2023/05/25 06:24:47;;;;;;;7.70;4.30;;;12.60;99.90;;;;;;5066270;28;20234;-60
2023/05/25 06:27:16;;;;;;;12.20;4.77;;;12.80;99.90;;;;;;4724909;28;10000203;-60
2023/05/25 06:29:43;;;;;;;8.47;4.47;;;12.70;99.90;;;;;;5069147;28;21061;-61
2023/05/25 06:32:10;;;;;;;7.70;4.57;;;12.80;99.90;;;;;;5078432;28;20206;-64
2023/05/25 06:34:37;;;;;;;8.60;4.73;;;13.00;99.90;;;;;;5067509;28;20215;-61
2023/05/25 06:37:04;;;;;;;11.47;4.70;;;13.10;99.90;;;;;;5070972;28;21030;-60
2023/05/25 06:39:31;;;;;;;12.03;4.93;;;13.10;99.90;;;;;;5073924;28;20194;-61
2023/05/25 06:41:58;;;;;;;10.17;4.23;;;13.10;99.90;;;;;;5046745;28;20221;-62
2023/05/25 06:44:25;;;;;;;10.97;4.60;;;13.30;99.90;;;;;;5073402;28;20211;-61
2023/05/25 06:46:52;;;;;;;8.67;4.63;;;13.30;99.90;;;;;;5072227;28;20736;-60
2023/05/25 06:49:19;;;;;;;9.03;4.37;;;13.40;99.90;;;;;;5072060;28;20654;-61
2023/05/25 06:51:47;;;;;;;14.27;5.50;;;13.60;99.90;;;;;;5075174;28;20198;-60
2023/05/25 06:54:14;;;;;;;17.00;5.03;;;14.10;99.90;;;;;;5074945;28;20287;-65
2023/05/25 06:56:41;;;;;;;13.53;5.50;;;14.30;99.90;;;;;;5071721;28;20307;-61
2023/05/25 06:59:08;;;;;;;11.87;4.93;;;14.00;99.90;;;;;;5057956;28;20207;-60
2023/05/25 07:01:36;;;;;;;12.57;4.80;;;14.30;99.90;;;;;;5071448;28;20803;-60
2023/05/25 07:04:03;;;;;;;7.47;3.87;;;13.90;99.90;;;;;;5074914;28;20204;-60
2023/05/25 07:06:30;;;;;;;8.43;4.07;;;14.10;99.90;;;;;;5080133;28;20204;-60
2023/05/25 07:08:57;;;;;;;8.10;4.50;;;13.80;99.90;;;;;;5056026;28;20224;-60
2023/05/25 07:11:24;;;;;;;12.23;4.87;;;13.90;99.90;;;;;;5074626;28;20253;-61
2023/05/25 07:13:51;;;;;;;9.43;4.73;;;13.70;99.90;;;;;;5070694;28;20269;-60
2023/05/25 07:16:18;;;;;;;7.27;4.63;;;13.90;99.90;;;;;;5072255;28;20208;-61
2023/05/25 07:18:45;;;;;;;12.37;4.63;;;13.90;99.90;;;;;;5070864;28;20572;-60
2023/05/25 07:21:12;;;;;;;11.50;4.37;;;14.40;99.90;;;;;;5072244;28;20200;-60
2023/05/25 07:23:39;;;;;;;11.30;4.50;;;14.60;99.90;;;;;;5058539;28;20314;-60
2023/05/25 07:26:07;;;;;;;8.47;5.40;;;14.70;99.90;;;;;;5057505;28;20235;-60
2023/05/25 07:28:34;;;;;;;11.90;4.80;;;14.70;99.90;;;;;;5076234;28;20196;-60
2023/05/25 07:31:01;;;;;;;8.17;4.17;;;14.70;99.90;;;;;;5071291;28;20212;-60
2023/05/25 07:33:28;;;;;;;9.13;3.70;;;14.90;99.90;;;;;;5074770;28;20234;-60
2023/05/25 07:35:54;;;;;;;7.13;3.50;;;15.10;99.90;;;;;;5079772;28;20252;-60
2023/05/25 07:38:21;;;;;;;7.63;4.10;;;15.30;99.90;;;;;;5060727;28;20204;-60
2023/05/25 07:40:48;;;;;;;8.83;4.30;;;15.30;99.90;;;;;;5079380;28;20200;-60
2023/05/25 07:43:15;;;;;;;6.17;3.60;;;15.60;99.90;;;;;;5071476;28;20229;-60
2023/05/25 07:45:42;;;;;;;11.63;3.97;;;15.90;99.90;;;;;;5074763;28;20733;-60
2023/05/25 07:48:10;;;;;;;6.30;3.77;;;15.90;99.90;;;;;;5075555;28;20209;-60
2023/05/25 07:50:37;;;;;;;13.93;4.37;;;15.70;99.90;;;;;;5081443;28;20210;-60
2023/05/25 07:53:03;;;;;;;14.00;4.70;;;15.90;99.90;;;;;;5075012;28;22209;-60
2023/05/25 07:55:30;;;;;;;15.90;4.87;;;16.00;99.90;;;;;;5075498;28;20906;-60
2023/05/25 07:57:57;;;;;;;9.47;3.77;;;15.60;99.90;;;;;;5079080;28;20221;-61
2023/05/25 08:00:24;;;;;;;9.50;3.80;;;15.70;99.90;;;;;;5076295;28;20210;-60
2023/05/25 08:02:51;;;;;;;4.90;3.10;;;16.30;99.90;;;;;;5076264;28;20206;-60
2023/05/25 08:05:18;;;;;;;8.77;3.53;;;16.80;99.90;;;;;;5080497;28;20199;-60
2023/05/25 08:07:45;;;;;;;12.43;4.30;;;17.00;99.90;;;;;;5078370;28;20230;-60
2023/05/25 08:10:12;;;;;;;7.17;3.87;;;16.90;99.90;;;;;;5076001;28;20208;-60
2023/05/25 08:12:39;;;;;;;8.07;3.77;;;17.10;99.90;;;;;;5074190;28;20304;-60
2023/05/25 08:15:15;;;;;;;8.67;3.93;;;16.80;99.90;;;;;;5074758;28;20683;-60
2023/05/25 08:17:43;;;;;;;10.50;4.43;;;16.90;99.90;;;;;;5077740;28;20327;-60
2023/05/25 08:20:10;;;;;;;17.23;4.87;;;16.50;99.90;;;;;;5081030;28;20660;-60
2023/05/25 08:22:37;;;;;;;8.93;4.33;;;16.30;99.90;;;;;;5076610;28;20569;-61
2023/05/25 08:25:05;;;;;;;9.37;3.63;;;16.20;99.90;;;;;;5062595;28;20237;-60
2023/05/25 08:27:32;;;;;;;11.13;4.30;;;16.80;99.90;;;;;;5076589;28;20205;-61
2023/05/25 08:30:04;;;;;;;7.50;4.20;;;17.30;99.90;;;;;;5080667;28;20207;-60
2023/05/25 08:32:31;;;;;;;6.57;3.80;;;17.50;99.90;;;;;;5075283;28;20635;-60
2023/05/25 08:34:58;;;;;;;12.40;4.33;;;17.50;99.90;;;;;;5074912;28;20217;-60
2023/05/25 08:37:25;;;;;;;9.03;4.10;;;17.60;99.90;;;;;;5080371;28;20306;-60
2023/05/25 08:39:52;;;;;;;9.70;4.67;;;17.60;99.90;;;;;;5057296;28;20597;-60
2023/05/25 08:42:19;;;;;;;9.73;4.00;;;17.80;99.90;;;;;;5078442;28;20292;-60
2023/05/25 08:44:47;;;;;;;10.93;3.70;;;16.90;99.90;;;;;;5076137;28;20547;-60
2023/05/25 08:47:16;;;;;;;9.60;5.20;;;17.20;99.90;;;;;;5037378;28;21411;-60
2023/05/25 08:49:44;;;;;;;12.87;4.97;;;17.20;99.90;;;;;;5062443;28;20231;-60
2023/05/25 08:52:13;;;;;;;10.50;5.00;;;17.10;99.90;;;;;;5080760;28;21966;-60
2023/05/25 08:54:43;;;;;;;9.97;4.63;;;16.30;99.90;;;;;;5074294;28;20253;-60
2023/05/25 08:57:35;;;;;;;8.57;3.73;;;16.30;99.90;;;;;;5082754;28;20203;-61
2023/05/25 09:00:10;;;;;;;10.57;3.73;;;16.10;99.90;;;;;;5088216;28;20719;-60
2023/05/25 09:03:09;;;;;;;8.77;3.70;;;15.70;99.90;;;;;;5088008;28;20201;-60
2023/05/25 09:05:36;;;;;;;6.27;3.80;;;16.10;99.90;;;;;;5085579;28;20292;-60
2023/05/25 09:08:07;;;;;;;11.43;3.80;;;15.90;99.90;;;;;;5069504;28;20204;-60
2023/05/25 09:10:35;;;;;;;13.13;4.03;;;15.90;99.90;;;;;;5068590;28;20273;-60
2023/05/25 09:13:03;;;;;;;10.03;3.47;;;15.90;99.90;;;;;;5084564;28;20197;-60
2023/05/25 09:15:47;;;;;;;10.50;3.33;;;15.70;99.90;;;;;;5079468;28;21071;-60
2023/05/25 09:18:14;;;;;;;10.30;3.07;;;15.50;99.90;;;;;;5079575;28;20211;-60
2023/05/25 09:20:41;;;;;;;8.27;3.27;;;15.60;99.90;;;;;;5075324;28;20219;-61
2023/05/25 09:23:13;;;;;;;9.13;3.23;;;15.90;99.90;;;;;;5068635;28;20323;-61
2023/05/25 09:25:40;;;;;;;13.53;3.87;;;16.00;99.90;;;;;;5066262;28;20191;-61
2023/05/25 09:28:08;;;;;;;11.87;3.37;;;16.10;99.90;;;;;;5074682;28;20455;-60
2023/05/25 09:30:52;;;;;;;6.00;3.07;;;16.50;99.90;;;;;;5063226;28;20201;-60
2023/05/25 09:33:19;;;;;;;5.03;2.77;;;16.70;99.90;;;;;;5086394;28;20232;-60
2023/05/25 09:35:47;;;;;;;8.63;2.67;;;16.70;99.90;;;;;;5074959;28;20599;-60
2023/05/25 09:38:17;;;;;;;9.47;2.97;;;16.70;99.90;;;;;;5077743;28;20740;-60
2023/05/25 09:40:44;;;;;;;7.13;2.43;;;16.60;99.90;;;;;;5061751;28;20297;-60
2023/05/25 09:43:12;;;;;;;7.50;2.67;;;16.50;99.90;;;;;;5084242;28;20248;-60
2023/05/25 09:45:53;;;;;;;8.43;3.57;;;16.50;99.90;;;;;;5080203;28;20208;-60
2023/05/25 09:48:21;;;;;;;5.17;2.20;;;16.30;99.90;;;;;;5064335;28;20209;-60
2023/05/25 09:50:49;;;;;;;3.63;2.20;;;16.10;99.90;;;;;;5077702;28;20688;-61
2023/05/25 09:53:17;;;;;;;5.93;2.33;;;16.00;99.90;;;;;;5080306;28;20556;-60
2023/05/25 09:55:48;;;;;;;5.60;2.47;;;16.10;99.90;;;;;;5080468;28;20250;-60
2023/05/25 09:58:23;;;;;;;5.27;2.43;;;16.10;99.90;;;;;;5081798;28;20231;-62
2023/05/25 10:00:54;;;;;;;7.27;2.40;;;15.90;99.90;;;;;;5080325;28;20198;-60
2023/05/25 10:03:21;;;;;;;5.53;2.70;;;16.30;99.90;;;;;;5081695;28;20208;-60
2023/05/25 10:05:49;;;;;;;5.10;2.50;;;16.50;99.90;;;;;;5057872;28;20237;-62
2023/05/25 10:08:18;;;;;;;5.17;2.77;;;16.50;99.90;;;;;;5080328;28;20263;-60
2023/05/25 10:10:48;;;;;;;5.70;2.80;;;16.30;99.90;;;;;;5054049;28;20603;-61
2023/05/25 10:13:20;;;;;;;4.77;2.63;;;16.10;99.90;;;;;;5074986;28;20202;-60
2023/05/25 10:15:51;;;;;;;9.30;3.90;;;16.40;99.90;;;;;;5079620;28;20281;-62
2023/05/25 10:18:25;;;;;;;7.70;2.57;;;16.70;99.90;;;;;;5080585;28;20291;-60
2023/05/25 10:21:01;;;;;;;9.80;3.07;;;16.70;99.90;;;;;;5079848;28;20287;-59
2023/05/25 10:23:41;;;;;;;7.43;3.27;;;16.40;99.90;;;;;;5079959;28;20232;-60
2023/05/25 10:26:08;;;;;;;7.13;3.47;;;16.40;99.90;;;;;;5074510;28;20208;-60
2023/05/25 10:28:36;;;;;;;11.50;4.07;;;16.40;99.90;;;;;;5078833;28;20216;-60
2023/05/25 10:31:04;;;;;;;7.67;2.90;;;16.30;99.90;;;;;;5042000;28;20216;-60
2023/05/25 10:33:32;;;;;;;7.50;2.83;;;16.00;99.90;;;;;;5079488;28;21130;-60
2023/05/25 10:36:02;;;;;;;9.57;3.47;;;16.00;99.90;;;;;;5055687;28;20200;-60
2023/05/25 10:38:35;;;;;;;9.73;3.70;;;16.10;99.90;;;;;;5077644;28;20203;-59
2023/05/25 10:41:04;;;;;;;13.63;4.20;;;16.20;99.90;;;;;;5076098;28;20197;-59
2023/05/25 10:43:31;;;;;;;6.87;3.80;;;16.20;99.90;;;;;;5078555;28;20262;-60
2023/05/25 10:45:58;;;;;;;9.80;3.27;;;16.10;99.90;;;;;;5059361;28;20288;-60
2023/05/25 10:48:38;;;;;;;10.07;4.43;;;16.30;99.90;;;;;;5075570;28;20206;-60
2023/05/25 10:51:06;;;;;;;9.03;3.23;;;16.70;99.90;;;;;;5058561;28;20189;-60
2023/05/25 10:53:36;;;;;;;11.37;3.53;;;17.30;99.90;;;;;;5071290;28;20211;-60
2023/05/25 10:56:06;;;;;;;10.30;3.10;;;17.40;99.90;;;;;;5077076;28;20211;-60
2023/05/25 10:58:33;;;;;;;8.70;3.00;;;17.60;99.90;;;;;;5057243;28;20279;-60
2023/05/25 11:01:10;;;;;;;7.97;3.07;;;17.70;99.90;;;;;;5071224;28;20220;-61
2023/05/25 11:03:43;;;;;;;8.23;3.40;;;18.00;99.90;;;;;;5067461;28;20648;-61
2023/05/25 11:06:15;;;;;;;5.73;3.47;;;18.00;99.90;;;;;;5073216;28;20231;-61
2023/05/25 11:09:00;;;;;;;9.53;3.47;;;17.70;99.90;;;;;;5078360;28;20205;-60
2023/05/25 11:11:49;;;;;;;8.37;3.30;;;17.70;99.90;;;;;;5070669;28;20213;-61
2023/05/25 11:14:28;;;;;;;8.90;4.47;;;17.50;99.90;;;;;;5040268;28;20222;-61
2023/05/25 11:17:13;;;;;;;7.23;3.27;;;17.40;99.90;;;;;;5074027;28;20367;-60
2023/05/25 11:19:50;;;;;;;9.03;3.90;;;17.30;99.90;;;;;;5074002;28;20213;-61
2023/05/25 11:22:36;;;;;;;8.50;3.03;;;17.10;99.90;;;;;;5075612;28;20210;-60
2023/05/25 11:25:36;;;;;;;5.73;3.20;;;16.90;99.90;;;;;;5051610;28;20237;-61
2023/05/25 11:28:05;;;;;;;11.13;3.23;;;17.00;99.90;;;;;;5040584;28;20205;-61
2023/05/25 11:30:32;;;;;;;7.60;3.70;;;17.00;99.90;;;;;;5052855;28;20555;-61
2023/05/25 11:33:03;;;;;;;5.33;3.50;;;17.20;99.90;;;;;;5065069;28;20227;-60
2023/05/25 11:35:36;;;;;;;7.97;3.07;;;17.10;99.90;;;;;;5055333;28;20221;-60
2023/05/25 11:38:05;;;;;;;15.07;4.33;;;17.10;99.90;;;;;;5072782;28;20220;-60
2023/05/25 11:40:33;;;;;;;6.00;3.50;;;17.40;99.90;;;;;;5067438;28;20225;-60
2023/05/25 11:43:02;;;;;;;7.07;4.20;;;17.50;99.90;;;;;;5043844;28;20209;-61
2023/05/25 11:45:32;;;;;;;9.10;4.47;;;17.40;99.90;;;;;;5047706;28;20229;-61
2023/05/25 11:47:59;;;;;;;5.13;3.03;;;17.20;99.90;;;;;;5072300;28;20728;-60
2023/05/25 11:50:27;;;;;;;9.80;3.67;;;17.50;99.90;;;;;;5072746;28;20206;-60
2023/05/25 11:52:54;;;;;;;16.70;5.10;;;17.40;99.90;;;;;;5075871;28;20223;-61
2023/05/25 11:55:21;;;;;;;40.10;7.17;;;17.30;99.90;;;;;;5085089;28;21071;-60
2023/05/25 11:57:55;;;;;;;26.73;6.57;;;17.50;99.90;;;;;;5085324;28;20206;-61
2023/05/25 12:00:27;;;;;;;8.87;3.83;;;17.40;99.90;;;;;;5071849;28;20289;-61
2023/05/25 12:02:55;;;;;;;7.03;2.77;;;17.30;99.90;;;;;;5069617;28;20201;-61
2023/05/25 12:05:23;;;;;;;8.43;3.07;;;17.70;99.90;;;;;;5062358;28;20213;-61
2023/05/25 12:07:51;;;;;;;5.13;2.80;;;18.50;99.90;;;;;;5076517;28;20260;-61
2023/05/25 12:10:18;;;;;;;6.20;3.10;;;18.90;99.90;;;;;;5067468;28;20292;-61
2023/05/25 12:12:50;;;;;;;6.93;3.53;;;18.90;99.90;;;;;;5057630;28;20206;-61
2023/05/25 12:15:22;;;;;;;7.10;3.13;;;18.50;99.90;;;;;;5073024;28;20286;-61
2023/05/25 12:17:50;;;;;;;6.37;3.13;;;18.30;99.90;;;;;;5075121;28;20638;-61
2023/05/25 12:20:18;;;;;;;6.03;3.00;;;18.00;99.90;;;;;;5081015;28;20205;-61
2023/05/25 12:22:46;;;;;;;9.57;4.30;;;17.80;99.90;;;;;;5057695;28;20206;-61
2023/05/25 12:25:17;;;;;;;7.40;3.40;;;17.50;99.90;;;;;;5080353;28;20214;-61
2023/05/25 12:27:44;;;;;;;4.97;3.60;;;17.60;99.90;;;;;;5062142;28;20206;-60
2023/05/25 12:30:11;;;;;;;10.03;3.83;;;17.60;99.90;;;;;;5062805;28;20197;-61
2023/05/25 12:33:14;;;;;;;6.97;2.90;;;17.50;99.90;;;;;;5058597;28;20324;-61
2023/05/25 12:35:46;;;;;;;9.53;3.43;;;17.50;99.90;;;;;;5013327;28;20235;-61
2023/05/25 12:38:18;;;;;;;4.43;2.60;;;17.60;99.90;;;;;;5006503;28;20233;-63
2023/05/25 12:40:45;;;;;;;7.30;3.00;;;17.60;99.90;;;;;;4975381;28;20261;-61
2023/05/25 12:43:14;;;;;;;7.47;2.80;;;17.40;99.90;;;;;;4992082;28;20297;-61
2023/05/25 12:45:41;;;;;;;6.50;2.93;;;17.30;99.90;;;;;;5008541;28;20206;-61
2023/05/25 12:48:09;;;;;;;5.30;2.80;;;17.50;99.90;;;;;;4993326;28;20200;-61
2023/05/25 12:50:36;;;;;;;4.93;3.17;;;17.70;99.90;;;;;;5011345;28;20350;-61
2023/05/25 12:53:04;;;;;;;4.60;2.47;;;17.90;99.90;;;;;;5011204;28;20220;-61
2023/05/25 12:55:33;;;;;;;7.53;3.23;;;17.80;99.90;;;;;;5014398;28;20227;-61
2023/05/25 12:58:04;;;;;;;4.17;2.50;;;17.90;99.90;;;;;;4982404;28;20292;-60
2023/05/25 13:00:31;;;;;;;6.37;3.37;;;17.70;99.90;;;;;;5008693;28;20677;-60
2023/05/25 13:02:59;;;;;;;5.93;3.03;;;17.70;99.90;;;;;;5001112;28;20755;-60
2023/05/25 13:05:28;;;;;;;5.77;3.03;;;17.80;99.90;;;;;;5008530;28;20250;-60
2023/05/25 13:07:56;;;;;;;6.93;2.67;;;17.80;99.90;;;;;;5016417;28;20213;-60
2023/05/25 13:10:24;;;;;;;7.27;2.93;;;17.70;99.90;;;;;;5043085;28;20206;-60
2023/05/25 13:12:52;;;;;;;7.57;3.17;;;17.60;99.90;;;;;;5075658;28;20212;-62
2023/05/25 13:15:20;;;;;;;5.87;3.00;;;17.70;99.90;;;;;;5079479;28;20210;-62
2023/05/25 13:17:49;;;;;;;4.07;2.50;;;17.70;99.90;;;;;;5074771;28;20753;-63
2023/05/25 13:20:18;;;;;;;4.70;2.77;;;17.70;99.90;;;;;;5078797;28;20249;-60
2023/05/25 13:22:48;;;;;;;8.83;3.20;;;17.50;99.90;;;;;;5068655;28;20617;-61
2023/05/25 13:25:16;;;;;;;4.87;3.40;;;17.50;99.90;;;;;;5065794;28;20203;-59
2023/05/25 13:27:45;;;;;;;5.60;2.70;;;17.70;99.90;;;;;;5078830;28;20253;-61
2023/05/25 13:30:12;;;;;;;4.47;2.70;;;17.70;99.90;;;;;;5069095;28;20235;-60
2023/05/25 13:32:40;;;;;;;5.10;3.00;;;17.70;99.90;;;;;;5050507;28;20228;-63
2023/05/25 13:35:11;;;;;;;5.67;2.70;;;17.80;99.90;;;;;;5073213;28;21677;-62
2023/05/25 13:37:38;;;;;;;4.43;2.87;;;17.90;99.90;;;;;;5057926;28;20681;-61
2023/05/25 13:40:05;;;;;;;5.47;2.77;;;17.80;99.90;;;;;;5070906;28;20339;-61
2023/05/25 13:42:32;;;;;;;5.77;2.97;;;17.80;99.90;;;;;;5052335;28;20211;-62
2023/05/25 13:44:59;;;;;;;4.30;2.80;;;17.60;99.90;;;;;;5054347;28;20200;-61
2023/05/25 13:47:26;;;;;;;6.00;2.87;;;17.80;99.90;;;;;;5046899;28;20211;-61
2023/05/25 13:49:54;;;;;;;5.53;2.60;;;17.60;99.90;;;;;;5067686;28;21671;-61
2023/05/25 13:52:21;;;;;;;8.50;3.30;;;17.60;99.90;;;;;;5066801;28;20202;-61
2023/05/25 13:54:48;;;;;;;5.10;2.93;;;17.60;99.90;;;;;;5037181;28;20242;-61
2023/05/25 13:57:15;;;;;;;7.63;3.13;;;17.80;99.90;;;;;;5074481;28;21057;-62
2023/05/25 13:59:42;;;;;;;6.83;2.90;;;17.90;99.90;;;;;;5076495;28;20199;-61
2023/05/25 14:02:09;;;;;;;7.27;3.10;;;18.00;99.90;;;;;;5073514;28;20690;-61
2023/05/25 14:04:36;;;;;;;7.73;3.20;;;18.00;99.90;;;;;;5050804;28;20278;-61
2023/05/25 14:07:03;;;;;;;7.60;3.10;;;17.90;99.90;;;;;;5042888;28;21907;-60
2023/05/25 14:09:30;;;;;;;6.87;2.80;;;17.80;99.90;;;;;;5077471;28;20199;-61
2023/05/25 14:11:57;;;;;;;8.83;3.50;;;17.70;99.90;;;;;;5064957;28;20238;-60
2023/05/25 14:14:24;;;;;;;8.47;3.30;;;17.70;99.90;;;;;;5067014;28;20194;-60
2023/05/25 14:16:59;;;;;;;9.10;3.27;;;17.80;99.90;;;;;;5067375;28;20208;-64
2023/05/25 14:19:27;;;;;;;6.37;2.70;;;18.00;99.90;;;;;;5076364;28;20566;-63
2023/05/25 14:21:54;;;;;;;5.30;2.97;;;18.20;99.90;;;;;;5068303;28;20635;-60
2023/05/25 14:24:39;;;;;;;7.27;3.10;;;18.20;99.90;;;;;;5077050;28;20683;-60
2023/05/25 14:27:06;;;;;;;9.83;3.50;;;18.30;99.90;;;;;;5057646;28;20599;-60
2023/05/25 14:29:33;;;;;;;10.83;3.43;;;18.30;99.90;;;;;;5058335;28;20209;-60
2023/05/25 14:32:01;;;;;;;5.80;3.10;;;18.30;99.90;;;;;;5068028;28;20194;-60
2023/05/25 14:34:28;;;;;;;8.43;3.97;;;18.00;99.90;;;;;;5070063;28;20198;-63
2023/05/25 14:36:55;;;;;;;5.43;3.20;;;17.80;99.90;;;;;;5078237;28;20233;-62
2023/05/25 14:39:22;;;;;;;7.30;3.67;;;17.80;99.90;;;;;;5079054;28;20209;-63
2023/05/25 14:41:49;;;;;;;4.40;2.63;;;18.10;99.90;;;;;;5060944;28;20303;-63
2023/05/25 14:44:15;;;;;;;7.60;2.50;;;18.10;99.90;;;;;;5076855;28;20218;-60
2023/05/25 14:46:42;;;;;;;8.00;2.80;;;18.50;99.90;;;;;;5081703;28;20197;-60
2023/05/25 14:49:09;;;;;;;11.13;3.33;;;18.70;99.90;;;;;;5081700;28;20210;-60
2023/05/25 14:51:36;;;;;;;7.33;3.30;;;18.70;99.90;;;;;;5071554;28;20220;-62
2023/05/25 14:54:05;;;;;;;10.17;3.43;;;19.00;99.90;;;;;;5077029;28;20848;-60
2023/05/25 14:56:33;;;;;;;6.43;3.33;;;18.90;99.90;;;;;;5063060;28;20221;-60
2023/05/25 14:59:00;;;;;;;5.50;3.33;;;18.50;99.90;;;;;;5076253;28;20248;-60
2023/05/25 15:01:28;;;;;;;10.03;3.20;;;18.30;99.90;;;;;;5056356;28;20268;-60
2023/05/25 15:03:55;;;;;;;7.17;3.27;;;18.50;99.90;;;;;;5071574;28;20507;-62
2023/05/25 15:06:23;;;;;;;5.23;3.00;;;18.60;99.90;;;;;;5075288;28;20191;-60
2023/05/25 15:08:50;;;;;;;7.30;3.40;;;18.70;99.90;;;;;;5079369;28;20213;-61
2023/05/25 15:11:17;;;;;;;10.23;3.40;;;18.90;99.90;;;;;;5060550;28;21776;-60
2023/05/25 15:13:45;;;;;;;5.60;3.73;;;19.10;99.90;;;;;;5068275;28;20221;-60
2023/05/25 15:16:15;;;;;;;8.10;3.23;;;19.10;99.90;;;;;;5078587;28;20862;-60
2023/05/25 15:18:43;;;;;;;9.00;3.00;;;19.10;99.90;;;;;;5079353;28;20252;-61
2023/05/25 15:21:10;;;;;;;5.90;3.40;;;18.60;99.90;;;;;;5072636;28;20213;-60
2023/05/25 15:23:37;;;;;;;7.67;3.10;;;18.40;99.90;;;;;;5041761;28;20250;-60
2023/05/25 15:26:06;;;;;;;7.73;2.83;;;18.30;99.90;;;;;;5035296;28;20200;-60
2023/05/25 15:28:33;;;;;;;9.43;3.20;;;18.20;99.90;;;;;;5027767;28;20237;-58
2023/05/25 15:31:01;;;;;;;7.00;2.97;;;18.10;99.90;;;;;;5034790;28;20299;-58
2023/05/25 15:33:30;;;;;;;7.73;3.50;;;18.40;99.90;;;;;;5028226;28;20232;-57
2023/05/25 15:36:17;;;;;;;6.43;3.33;;;18.60;99.90;;;;;;5034408;28;20226;-58
2023/05/25 15:38:47;;;;;;;6.10;2.70;;;18.80;99.90;;;;;;5034071;28;20234;-58
2023/05/25 15:41:15;;;;;;;9.23;3.17;;;18.70;99.90;;;;;;5031983;28;20533;-58
2023/05/25 15:43:56;;;;;;;7.27;3.37;;;18.50;99.90;;;;;;5023273;28;20199;-63
2023/05/25 15:46:24;;;;;;;9.83;3.40;;;18.20;99.90;;;;;;5031477;28;20290;-62
2023/05/25 15:48:52;;;;;;;7.33;3.10;;;18.30;99.90;;;;;;5023512;28;20212;-58
2023/05/25 15:51:19;;;;;;;11.97;3.87;;;17.90;99.90;;;;;;5030168;28;20215;-58
2023/05/25 15:53:46;;;;;;;10.50;2.90;;;17.90;99.90;;;;;;5025940;28;20660;-58
2023/05/25 15:56:13;;;;;;;4.80;2.40;;;17.90;99.90;;;;;;5032781;28;20765;-58
2023/05/25 15:58:40;;;;;;;8.13;2.70;;;18.00;99.90;;;;;;5001393;28;21778;-58
2023/05/25 16:01:07;;;;;;;10.47;3.97;;;18.10;99.90;;;;;;5031185;28;20207;-57
2023/05/25 16:03:36;;;;;;;9.07;2.97;;;18.30;99.90;;;;;;5024594;28;20302;-58
2023/05/25 16:06:04;;;;;;;9.43;3.40;;;18.30;99.90;;;;;;5030297;28;20215;-58
2023/05/25 16:08:30;;;;;;;7.37;2.70;;;18.30;99.90;;;;;;5028861;28;20200;-58
2023/05/25 16:10:57;;;;;;;8.07;3.07;;;18.40;99.90;;;;;;5028417;28;20654;-58
2023/05/25 16:13:24;;;;;;;8.77;2.80;;;18.50;99.90;;;;;;5031070;28;20632;-58
2023/05/25 16:15:51;;;;;;;7.43;2.80;;;18.60;99.90;;;;;;5032135;28;20340;-58
2023/05/25 16:18:18;;;;;;;7.80;2.73;;;18.70;99.90;;;;;;5032965;28;20226;-58
2023/05/25 16:20:45;;;;;;;9.47;2.70;;;18.70;99.90;;;;;;5026958;28;20547;-60
2023/05/25 16:23:13;;;;;;;12.30;3.60;;;18.60;99.90;;;;;;5024620;28;20217;-58
2023/05/25 16:25:41;;;;;;;7.07;3.07;;;18.50;99.90;;;;;;5071408;28;20212;-58
2023/05/25 16:28:07;;;;;;;10.93;3.33;;;18.40;99.90;;;;;;5071201;28;20515;-58
2023/05/25 16:30:34;;;;;;;7.43;3.13;;;18.20;99.90;;;;;;5069895;28;21700;-58
2023/05/25 16:33:01;;;;;;;8.40;3.43;;;18.20;99.90;;;;;;5050412;28;20695;-60
2023/05/25 16:35:28;;;;;;;11.97;3.13;;;18.30;99.90;;;;;;5056954;28;20221;-58
2023/05/25 16:37:55;;;;;;;10.83;3.33;;;18.40;99.90;;;;;;5058222;28;20236;-58
2023/05/25 16:40:22;;;;;;;8.87;3.37;;;18.30;99.90;;;;;;5070837;28;20210;-58
2023/05/25 16:42:49;;;;;;;10.60;3.60;;;18.10;99.90;;;;;;5074531;28;20207;-58
2023/05/25 16:45:16;;;;;;;8.00;3.60;;;18.00;99.90;;;;;;5054732;28;20208;-57
2023/05/25 16:47:43;;;;;;;9.80;3.53;;;18.00;99.90;;;;;;5076232;28;20294;-58
2023/05/25 16:50:09;;;;;;;10.80;3.30;;;18.00;99.90;;;;;;5051273;28;20198;-58
2023/05/25 16:52:37;;;;;;;8.27;3.33;;;18.10;99.90;;;;;;5070660;28;20213;-58
2023/05/25 16:55:05;;;;;;;8.90;3.23;;;17.90;99.90;;;;;;5072725;28;20283;-58
2023/05/25 16:57:32;;;;;;;12.87;3.30;;;17.90;99.90;;;;;;5042734;28;20238;-57
2023/05/25 16:59:59;;;;;;;12.70;3.93;;;17.90;99.90;;;;;;5079022;28;20223;-58
2023/05/25 17:02:26;;;;;;;10.13;3.60;;;18.00;99.90;;;;;;5074217;28;20204;-58
2023/05/25 17:04:53;;;;;;;9.20;3.27;;;18.10;99.90;;;;;;5079350;28;20209;-58
2023/05/25 17:07:20;;;;;;;12.60;3.40;;;18.20;99.90;;;;;;5080152;28;20571;-58
2023/05/25 17:09:47;;;;;;;14.13;3.80;;;17.90;99.90;;;;;;5078397;28;20242;-58
2023/05/25 17:12:14;;;;;;;9.60;3.37;;;18.00;99.90;;;;;;5081917;28;20571;-58